sensor_id;sensor_type;location;lat;lon;timestamp;P1;durP1;ratioP1;P2;durP2;ratioP2
19195;SDS011;9730;48.926;11.376;2022-07-22T00:00:24;21.10;;;16.25;;
19195;SDS011;9730;48.926;11.376;2022-07-22T00:02:50;22.48;;;14.90;;
19195;SDS011;9730;48.926;11.376;2022-07-22T00:05:17;17.33;;;14.90;;
19195;SDS011;9730;48.926;11.376;2022-07-22T00:07:43;18.73;;;14.88;;
19195;SDS011;9730;48.926;11.376;2022-07-22T00:10:10;18.90;;;16.58;;
19195;SDS011;9730;48.926;11.376;2022-07-22T00:12:37;17.88;;;15.98;;
19195;SDS011;9730;48.926;11.376;2022-07-22T00:15:06;21.02;;;15.43;;
19195;SDS011;9730;48.926;11.376;2022-07-22T00:17:34;20.25;;;14.98;;
19195;SDS011;9730;48.926;11.376;2022-07-22T00:20:01;20.98;;;15.23;;
19195;SDS011;9730;48.926;11.376;2022-07-22T00:22:28;17.40;;;15.43;;
19195;SDS011;9730;48.926;11.376;2022-07-22T00:24:55;19.08;;;14.73;;
19195;SDS011;9730;48.926;11.376;2022-07-22T00:27:21;17.52;;;14.38;;
19195;SDS011;9730;48.926;11.376;2022-07-22T00:29:48;20.70;;;16.90;;
19195;SDS011;9730;48.926;11.376;2022-07-22T00:32:16;19.13;;;16.35;;
19195;SDS011;9730;48.926;11.376;2022-07-22T00:34:43;18.67;;;15.97;;
19195;SDS011;9730;48.926;11.376;2022-07-22T00:37:09;19.80;;;17.00;;
19195;SDS011;9730;48.926;11.376;2022-07-22T00:39:36;21.73;;;15.98;;
19195;SDS011;9730;48.926;11.376;2022-07-22T00:42:02;20.02;;;17.35;;
19195;SDS011;9730;48.926;11.376;2022-07-22T00:44:29;20.77;;;17.50;;
19195;SDS011;9730;48.926;11.376;2022-07-22T00:46:56;24.17;;;18.88;;
19195;SDS011;9730;48.926;11.376;2022-07-22T00:49:23;20.90;;;18.52;;
19195;SDS011;9730;48.926;11.376;2022-07-22T00:51:50;23.05;;;18.50;;
19195;SDS011;9730;48.926;11.376;2022-07-22T00:54:17;23.10;;;18.10;;
19195;SDS011;9730;48.926;11.376;2022-07-22T00:56:44;21.58;;;18.15;;
19195;SDS011;9730;48.926;11.376;2022-07-22T00:59:12;22.63;;;18.60;;
19195;SDS011;9730;48.926;11.376;2022-07-22T01:01:39;23.33;;;17.27;;
19195;SDS011;9730;48.926;11.376;2022-07-22T01:04:06;23.70;;;17.58;;
19195;SDS011;9730;48.926;11.376;2022-07-22T01:06:34;22.73;;;17.65;;
19195;SDS011;9730;48.926;11.376;2022-07-22T01:09:01;19.25;;;15.25;;
19195;SDS011;9730;48.926;11.376;2022-07-22T01:11:27;17.70;;;15.52;;
19195;SDS011;9730;48.926;11.376;2022-07-22T01:13:54;21.70;;;16.20;;
19195;SDS011;9730;48.926;11.376;2022-07-22T01:16:22;21.15;;;16.75;;
19195;SDS011;9730;48.926;11.376;2022-07-22T01:18:49;17.15;;;14.88;;
19195;SDS011;9730;48.926;11.376;2022-07-22T01:21:17;23.02;;;17.08;;
19195;SDS011;9730;48.926;11.376;2022-07-22T01:23:44;19.65;;;15.75;;
19195;SDS011;9730;48.926;11.376;2022-07-22T01:26:11;18.45;;;15.88;;
19195;SDS011;9730;48.926;11.376;2022-07-22T01:28:38;20.58;;;16.25;;
19195;SDS011;9730;48.926;11.376;2022-07-22T01:31:05;17.67;;;15.35;;
19195;SDS011;9730;48.926;11.376;2022-07-22T01:33:31;18.73;;;16.08;;
19195;SDS011;9730;48.926;11.376;2022-07-22T01:35:59;19.25;;;15.55;;
19195;SDS011;9730;48.926;11.376;2022-07-22T01:38:27;20.15;;;16.48;;
19195;SDS011;9730;48.926;11.376;2022-07-22T01:40:54;20.92;;;16.35;;
19195;SDS011;9730;48.926;11.376;2022-07-22T01:43:21;21.33;;;16.48;;
19195;SDS011;9730;48.926;11.376;2022-07-22T01:45:49;19.60;;;16.65;;
19195;SDS011;9730;48.926;11.376;2022-07-22T01:48:19;18.92;;;16.00;;
19195;SDS011;9730;48.926;11.376;2022-07-22T01:50:46;19.60;;;16.20;;
19195;SDS011;9730;48.926;11.376;2022-07-22T01:53:15;19.65;;;16.38;;
19195;SDS011;9730;48.926;11.376;2022-07-22T01:55:45;19.42;;;15.25;;
19195;SDS011;9730;48.926;11.376;2022-07-22T01:58:12;19.75;;;15.52;;
19195;SDS011;9730;48.926;11.376;2022-07-22T02:00:39;17.23;;;15.27;;
19195;SDS011;9730;48.926;11.376;2022-07-22T02:03:06;19.95;;;16.65;;
19195;SDS011;9730;48.926;11.376;2022-07-22T02:05:33;18.92;;;16.33;;
19195;SDS011;9730;48.926;11.376;2022-07-22T02:08:06;21.58;;;17.45;;
19195;SDS011;9730;48.926;11.376;2022-07-22T02:10:56;23.40;;;16.80;;
19195;SDS011;9730;48.926;11.376;2022-07-22T02:13:23;17.95;;;15.15;;
19195;SDS011;9730;48.926;11.376;2022-07-22T02:15:49;18.55;;;15.15;;
19195;SDS011;9730;48.926;11.376;2022-07-22T02:18:17;18.77;;;15.63;;
19195;SDS011;9730;48.926;11.376;2022-07-22T02:20:44;20.27;;;16.60;;
19195;SDS011;9730;48.926;11.376;2022-07-22T02:23:12;21.38;;;17.02;;
19195;SDS011;9730;48.926;11.376;2022-07-22T02:25:39;17.98;;;14.50;;
19195;SDS011;9730;48.926;11.376;2022-07-22T02:28:08;24.95;;;15.57;;
19195;SDS011;9730;48.926;11.376;2022-07-22T02:30:35;18.17;;;15.52;;
19195;SDS011;9730;48.926;11.376;2022-07-22T02:33:02;17.02;;;14.07;;
19195;SDS011;9730;48.926;11.376;2022-07-22T02:35:28;16.15;;;13.55;;
19195;SDS011;9730;48.926;11.376;2022-07-22T02:37:55;15.48;;;13.63;;
19195;SDS011;9730;48.926;11.376;2022-07-22T02:40:21;16.40;;;14.35;;
19195;SDS011;9730;48.926;11.376;2022-07-22T02:42:48;19.35;;;13.60;;
19195;SDS011;9730;48.926;11.376;2022-07-22T02:45:16;15.18;;;13.57;;
19195;SDS011;9730;48.926;11.376;2022-07-22T02:47:46;16.70;;;13.65;;
19195;SDS011;9730;48.926;11.376;2022-07-22T02:50:14;18.15;;;14.77;;
19195;SDS011;9730;48.926;11.376;2022-07-22T02:52:41;16.30;;;14.45;;
19195;SDS011;9730;48.926;11.376;2022-07-22T02:55:07;15.68;;;13.48;;
19195;SDS011;9730;48.926;11.376;2022-07-22T02:57:34;15.93;;;14.23;;
19195;SDS011;9730;48.926;11.376;2022-07-22T03:00:02;17.77;;;14.85;;
19195;SDS011;9730;48.926;11.376;2022-07-22T03:02:35;14.18;;;11.98;;
19195;SDS011;9730;48.926;11.376;2022-07-22T03:05:02;14.38;;;12.35;;
19195;SDS011;9730;48.926;11.376;2022-07-22T03:07:29;14.82;;;13.25;;
19195;SDS011;9730;48.926;11.376;2022-07-22T03:09:56;15.00;;;11.80;;
19195;SDS011;9730;48.926;11.376;2022-07-22T03:12:23;17.25;;;12.50;;
19195;SDS011;9730;48.926;11.376;2022-07-22T03:14:49;18.88;;;13.30;;
19195;SDS011;9730;48.926;11.376;2022-07-22T03:17:16;16.92;;;13.25;;
19195;SDS011;9730;48.926;11.376;2022-07-22T03:19:44;15.23;;;13.07;;
19195;SDS011;9730;48.926;11.376;2022-07-22T03:22:11;18.42;;;14.23;;
19195;SDS011;9730;48.926;11.376;2022-07-22T03:24:38;16.10;;;14.23;;
19195;SDS011;9730;48.926;11.376;2022-07-22T03:27:05;15.73;;;14.02;;
19195;SDS011;9730;48.926;11.376;2022-07-22T03:29:31;19.63;;;15.10;;
19195;SDS011;9730;48.926;11.376;2022-07-22T03:31:58;21.63;;;15.98;;
19195;SDS011;9730;48.926;11.376;2022-07-22T03:34:37;16.25;;;13.32;;
19195;SDS011;9730;48.926;11.376;2022-07-22T03:39:34;23.35;;;13.80;;
19195;SDS011;9730;48.926;11.376;2022-07-22T03:42:01;14.85;;;13.25;;
19195;SDS011;9730;48.926;11.376;2022-07-22T03:44:30;16.30;;;13.75;;
19195;SDS011;9730;48.926;11.376;2022-07-22T03:46:57;19.63;;;15.25;;
19195;SDS011;9730;48.926;11.376;2022-07-22T03:49:23;22.40;;;16.40;;
19195;SDS011;9730;48.926;11.376;2022-07-22T03:51:51;16.92;;;14.70;;
19195;SDS011;9730;48.926;11.376;2022-07-22T03:54:19;23.98;;;17.60;;
19195;SDS011;9730;48.926;11.376;2022-07-22T03:56:45;29.98;;;19.42;;
19195;SDS011;9730;48.926;11.376;2022-07-22T03:59:14;25.65;;;18.33;;
19195;SDS011;9730;48.926;11.376;2022-07-22T04:01:41;36.10;;;19.40;;
19195;SDS011;9730;48.926;11.376;2022-07-22T04:04:10;25.33;;;18.45;;
19195;SDS011;9730;48.926;11.376;2022-07-22T04:06:40;47.60;;;21.27;;
19195;SDS011;9730;48.926;11.376;2022-07-22T04:09:14;25.92;;;18.58;;
19195;SDS011;9730;48.926;11.376;2022-07-22T04:11:42;22.33;;;18.08;;
19195;SDS011;9730;48.926;11.376;2022-07-22T04:14:09;25.88;;;18.80;;
19195;SDS011;9730;48.926;11.376;2022-07-22T04:16:36;38.58;;;19.45;;
19195;SDS011;9730;48.926;11.376;2022-07-22T04:19:07;25.33;;;17.95;;
19195;SDS011;9730;48.926;11.376;2022-07-22T04:21:46;35.70;;;19.98;;
19195;SDS011;9730;48.926;11.376;2022-07-22T04:24:13;47.88;;;20.63;;
19195;SDS011;9730;48.926;11.376;2022-07-22T04:26:39;20.25;;;17.40;;
19195;SDS011;9730;48.926;11.376;2022-07-22T04:29:07;29.73;;;19.75;;
19195;SDS011;9730;48.926;11.376;2022-07-22T04:31:34;24.60;;;20.10;;
19195;SDS011;9730;48.926;11.376;2022-07-22T04:34:05;25.90;;;18.17;;
19195;SDS011;9730;48.926;11.376;2022-07-22T04:36:31;21.00;;;17.35;;
19195;SDS011;9730;48.926;11.376;2022-07-22T04:38:58;22.80;;;16.95;;
19195;SDS011;9730;48.926;11.376;2022-07-22T04:41:25;23.35;;;18.02;;
19195;SDS011;9730;48.926;11.376;2022-07-22T04:43:52;20.95;;;17.02;;
19195;SDS011;9730;48.926;11.376;2022-07-22T04:46:23;18.27;;;15.40;;
19195;SDS011;9730;48.926;11.376;2022-07-22T04:48:50;22.02;;;16.40;;
19195;SDS011;9730;48.926;11.376;2022-07-22T04:51:16;23.65;;;16.13;;
19195;SDS011;9730;48.926;11.376;2022-07-22T04:53:46;24.13;;;17.77;;
19195;SDS011;9730;48.926;11.376;2022-07-22T04:56:14;22.77;;;16.05;;
19195;SDS011;9730;48.926;11.376;2022-07-22T04:58:40;19.73;;;16.38;;
19195;SDS011;9730;48.926;11.376;2022-07-22T05:01:07;22.63;;;16.65;;
19195;SDS011;9730;48.926;11.376;2022-07-22T05:03:35;20.27;;;16.80;;
19195;SDS011;9730;48.926;11.376;2022-07-22T05:06:03;18.30;;;15.60;;
19195;SDS011;9730;48.926;11.376;2022-07-22T05:08:35;19.55;;;15.45;;
19195;SDS011;9730;48.926;11.376;2022-07-22T05:11:02;17.88;;;14.90;;
19195;SDS011;9730;48.926;11.376;2022-07-22T05:13:28;18.92;;;15.60;;
19195;SDS011;9730;48.926;11.376;2022-07-22T05:15:55;21.17;;;15.02;;
19195;SDS011;9730;48.926;11.376;2022-07-22T05:18:22;18.35;;;15.20;;
19195;SDS011;9730;48.926;11.376;2022-07-22T05:20:50;20.30;;;17.83;;
19195;SDS011;9730;48.926;11.376;2022-07-22T05:23:16;22.43;;;17.17;;
19195;SDS011;9730;48.926;11.376;2022-07-22T05:25:43;18.38;;;15.27;;
19195;SDS011;9730;48.926;11.376;2022-07-22T05:28:09;18.25;;;14.77;;
19195;SDS011;9730;48.926;11.376;2022-07-22T05:30:40;17.02;;;15.23;;
19195;SDS011;9730;48.926;11.376;2022-07-22T05:33:06;17.73;;;15.32;;
19195;SDS011;9730;48.926;11.376;2022-07-22T05:35:53;16.77;;;14.75;;
19195;SDS011;9730;48.926;11.376;2022-07-22T05:38:20;17.63;;;15.68;;
19195;SDS011;9730;48.926;11.376;2022-07-22T05:40:46;17.55;;;15.73;;
19195;SDS011;9730;48.926;11.376;2022-07-22T05:43:13;16.80;;;15.00;;
19195;SDS011;9730;48.926;11.376;2022-07-22T05:45:40;19.65;;;15.85;;
19195;SDS011;9730;48.926;11.376;2022-07-22T05:48:07;18.48;;;16.00;;
19195;SDS011;9730;48.926;11.376;2022-07-22T05:50:35;17.55;;;15.40;;
19195;SDS011;9730;48.926;11.376;2022-07-22T05:53:03;18.67;;;16.23;;
19195;SDS011;9730;48.926;11.376;2022-07-22T05:55:30;16.40;;;14.63;;
19195;SDS011;9730;48.926;11.376;2022-07-22T05:57:56;19.40;;;15.15;;
19195;SDS011;9730;48.926;11.376;2022-07-22T06:00:24;17.25;;;14.48;;
19195;SDS011;9730;48.926;11.376;2022-07-22T06:02:50;16.30;;;14.27;;
19195;SDS011;9730;48.926;11.376;2022-07-22T06:05:18;17.30;;;13.90;;
19195;SDS011;9730;48.926;11.376;2022-07-22T06:07:46;15.90;;;13.60;;
19195;SDS011;9730;48.926;11.376;2022-07-22T06:10:24;14.30;;;11.85;;
19195;SDS011;9730;48.926;11.376;2022-07-22T06:12:51;14.73;;;11.02;;
19195;SDS011;9730;48.926;11.376;2022-07-22T06:15:18;11.40;;;10.18;;
19195;SDS011;9730;48.926;11.376;2022-07-22T06:17:46;14.85;;;11.05;;
19195;SDS011;9730;48.926;11.376;2022-07-22T06:20:13;11.20;;;9.82;;
19195;SDS011;9730;48.926;11.376;2022-07-22T06:22:39;10.68;;;9.57;;
19195;SDS011;9730;48.926;11.376;2022-07-22T06:25:06;12.70;;;9.75;;
19195;SDS011;9730;48.926;11.376;2022-07-22T06:27:35;10.87;;;9.23;;
19195;SDS011;9730;48.926;11.376;2022-07-22T06:30:02;10.93;;;9.20;;
19195;SDS011;9730;48.926;11.376;2022-07-22T06:32:30;10.35;;;9.32;;
19195;SDS011;9730;48.926;11.376;2022-07-22T06:34:56;10.20;;;8.65;;
19195;SDS011;9730;48.926;11.376;2022-07-22T06:37:23;11.15;;;8.20;;
19195;SDS011;9730;48.926;11.376;2022-07-22T06:39:49;12.23;;;9.00;;
19195;SDS011;9730;48.926;11.376;2022-07-22T06:42:22;9.75;;;8.75;;
19195;SDS011;9730;48.926;11.376;2022-07-22T06:45:25;8.68;;;7.82;;
19195;SDS011;9730;48.926;11.376;2022-07-22T06:48:02;10.95;;;9.18;;
19195;SDS011;9730;48.926;11.376;2022-07-22T06:50:30;14.43;;;9.40;;
19195;SDS011;9730;48.926;11.376;2022-07-22T06:55:24;11.40;;;8.82;;
19195;SDS011;9730;48.926;11.376;2022-07-22T06:58:07;9.15;;;8.32;;
19195;SDS011;9730;48.926;11.376;2022-07-22T07:00:35;12.30;;;9.10;;
19195;SDS011;9730;48.926;11.376;2022-07-22T07:03:18;11.05;;;9.88;;
19195;SDS011;9730;48.926;11.376;2022-07-22T07:05:44;9.15;;;8.20;;
19195;SDS011;9730;48.926;11.376;2022-07-22T07:08:11;9.35;;;8.10;;
19195;SDS011;9730;48.926;11.376;2022-07-22T07:10:38;12.20;;;8.48;;
19195;SDS011;9730;48.926;11.376;2022-07-22T07:13:09;8.82;;;7.75;;
19195;SDS011;9730;48.926;11.376;2022-07-22T07:15:44;8.85;;;7.68;;
19195;SDS011;9730;48.926;11.376;2022-07-22T07:18:12;8.77;;;7.88;;
19195;SDS011;9730;48.926;11.376;2022-07-22T07:20:39;8.18;;;7.40;;
19195;SDS011;9730;48.926;11.376;2022-07-22T07:23:08;8.73;;;7.82;;
19195;SDS011;9730;48.926;11.376;2022-07-22T07:25:40;8.88;;;7.43;;
19195;SDS011;9730;48.926;11.376;2022-07-22T07:28:06;8.15;;;7.35;;
19195;SDS011;9730;48.926;11.376;2022-07-22T07:30:48;10.27;;;7.43;;
19195;SDS011;9730;48.926;11.376;2022-07-22T07:33:16;7.88;;;7.18;;
19195;SDS011;9730;48.926;11.376;2022-07-22T07:35:42;8.25;;;7.13;;
19195;SDS011;9730;48.926;11.376;2022-07-22T07:38:10;11.45;;;7.18;;
19195;SDS011;9730;48.926;11.376;2022-07-22T07:40:39;11.25;;;8.27;;
19195;SDS011;9730;48.926;11.376;2022-07-22T07:43:06;10.27;;;8.52;;
19195;SDS011;9730;48.926;11.376;2022-07-22T07:45:33;11.18;;;7.70;;
19195;SDS011;9730;48.926;11.376;2022-07-22T07:48:03;9.10;;;7.57;;
19195;SDS011;9730;48.926;11.376;2022-07-22T07:50:30;8.80;;;7.13;;
19195;SDS011;9730;48.926;11.376;2022-07-22T07:52:57;7.82;;;6.90;;
19195;SDS011;9730;48.926;11.376;2022-07-22T07:55:25;8.07;;;6.75;;
19195;SDS011;9730;48.926;11.376;2022-07-22T07:57:52;7.55;;;6.88;;
19195;SDS011;9730;48.926;11.376;2022-07-22T08:00:21;11.15;;;6.95;;
19195;SDS011;9730;48.926;11.376;2022-07-22T08:02:49;8.63;;;6.97;;
19195;SDS011;9730;48.926;11.376;2022-07-22T08:07:47;8.25;;;7.07;;
19195;SDS011;9730;48.926;11.376;2022-07-22T08:13:00;7.68;;;5.93;;
19195;SDS011;9730;48.926;11.376;2022-07-22T08:15:49;10.00;;;5.90;;
19195;SDS011;9730;48.926;11.376;2022-07-22T08:18:19;7.28;;;6.43;;
19195;SDS011;9730;48.926;11.376;2022-07-22T08:20:47;7.43;;;6.68;;
19195;SDS011;9730;48.926;11.376;2022-07-22T08:23:15;6.72;;;5.60;;
19195;SDS011;9730;48.926;11.376;2022-07-22T08:25:44;6.50;;;5.70;;
19195;SDS011;9730;48.926;11.376;2022-07-22T08:28:10;7.90;;;6.55;;
19195;SDS011;9730;48.926;11.376;2022-07-22T08:30:37;10.27;;;5.78;;
19195;SDS011;9730;48.926;11.376;2022-07-22T08:33:05;6.43;;;5.82;;
19195;SDS011;9730;48.926;11.376;2022-07-22T08:35:31;7.47;;;6.50;;
19195;SDS011;9730;48.926;11.376;2022-07-22T08:38:00;6.80;;;6.20;;
19195;SDS011;9730;48.926;11.376;2022-07-22T08:40:27;8.02;;;5.75;;
19195;SDS011;9730;48.926;11.376;2022-07-22T08:42:55;7.22;;;5.85;;
19195;SDS011;9730;48.926;11.376;2022-07-22T08:45:22;6.80;;;4.97;;
19195;SDS011;9730;48.926;11.376;2022-07-22T08:47:50;6.13;;;5.53;;
19195;SDS011;9730;48.926;11.376;2022-07-22T08:50:18;6.68;;;5.75;;
19195;SDS011;9730;48.926;11.376;2022-07-22T08:53:02;7.43;;;6.05;;
19195;SDS011;9730;48.926;11.376;2022-07-22T08:55:30;6.80;;;6.20;;
19195;SDS011;9730;48.926;11.376;2022-07-22T08:57:56;7.63;;;6.82;;
19195;SDS011;9730;48.926;11.376;2022-07-22T09:00:23;7.43;;;6.70;;
19195;SDS011;9730;48.926;11.376;2022-07-22T09:02:50;7.17;;;6.47;;
19195;SDS011;9730;48.926;11.376;2022-07-22T09:05:17;6.95;;;6.15;;
19195;SDS011;9730;48.926;11.376;2022-07-22T09:07:47;8.10;;;6.50;;
19195;SDS011;9730;48.926;11.376;2022-07-22T09:10:30;6.85;;;6.25;;
19195;SDS011;9730;48.926;11.376;2022-07-22T09:13:16;9.45;;;6.30;;
19195;SDS011;9730;48.926;11.376;2022-07-22T09:15:58;7.80;;;5.80;;
19195;SDS011;9730;48.926;11.376;2022-07-22T09:18:47;8.30;;;6.40;;
19195;SDS011;9730;48.926;11.376;2022-07-22T09:21:28;7.70;;;6.90;;
19195;SDS011;9730;48.926;11.376;2022-07-22T09:24:28;8.82;;;6.57;;
19195;SDS011;9730;48.926;11.376;2022-07-22T09:27:18;8.05;;;6.43;;
19195;SDS011;9730;48.926;11.376;2022-07-22T09:30:10;7.85;;;7.18;;
19195;SDS011;9730;48.926;11.376;2022-07-22T09:32:45;8.00;;;7.20;;
19195;SDS011;9730;48.926;11.376;2022-07-22T09:35:21;8.52;;;7.72;;
19195;SDS011;9730;48.926;11.376;2022-07-22T09:37:52;8.13;;;7.15;;
19195;SDS011;9730;48.926;11.376;2022-07-22T09:40:20;9.13;;;6.82;;
19195;SDS011;9730;48.926;11.376;2022-07-22T09:42:52;6.80;;;6.13;;
19195;SDS011;9730;48.926;11.376;2022-07-22T09:45:20;9.43;;;6.97;;
19195;SDS011;9730;48.926;11.376;2022-07-22T09:47:48;7.60;;;6.90;;
19195;SDS011;9730;48.926;11.376;2022-07-22T09:50:25;7.75;;;6.25;;
19195;SDS011;9730;48.926;11.376;2022-07-22T09:53:16;7.20;;;6.50;;
19195;SDS011;9730;48.926;11.376;2022-07-22T09:55:54;8.70;;;6.65;;
19195;SDS011;9730;48.926;11.376;2022-07-22T09:58:23;10.68;;;7.43;;
19195;SDS011;9730;48.926;11.376;2022-07-22T10:00:50;10.00;;;7.35;;
19195;SDS011;9730;48.926;11.376;2022-07-22T10:03:21;9.88;;;6.82;;
19195;SDS011;9730;48.926;11.376;2022-07-22T10:05:52;7.60;;;6.47;;
19195;SDS011;9730;48.926;11.376;2022-07-22T10:08:20;7.63;;;6.93;;
19195;SDS011;9730;48.926;11.376;2022-07-22T10:10:47;10.25;;;6.88;;
19195;SDS011;9730;48.926;11.376;2022-07-22T10:13:15;7.70;;;6.93;;
19195;SDS011;9730;48.926;11.376;2022-07-22T10:15:46;7.80;;;6.72;;
19195;SDS011;9730;48.926;11.376;2022-07-22T10:18:14;7.35;;;6.75;;
19195;SDS011;9730;48.926;11.376;2022-07-22T10:20:44;7.32;;;6.63;;
19195;SDS011;9730;48.926;11.376;2022-07-22T10:23:12;8.25;;;7.20;;
19195;SDS011;9730;48.926;11.376;2022-07-22T10:25:49;8.82;;;7.20;;
19195;SDS011;9730;48.926;11.376;2022-07-22T10:28:21;8.50;;;7.43;;
19195;SDS011;9730;48.926;11.376;2022-07-22T10:30:51;9.60;;;7.65;;
19195;SDS011;9730;48.926;11.376;2022-07-22T10:33:18;9.05;;;6.80;;
19195;SDS011;9730;48.926;11.376;2022-07-22T10:35:52;11.13;;;7.00;;
19195;SDS011;9730;48.926;11.376;2022-07-22T10:38:21;9.40;;;7.18;;
19195;SDS011;9730;48.926;11.376;2022-07-22T10:40:49;8.03;;;7.20;;
19195;SDS011;9730;48.926;11.376;2022-07-22T10:43:17;9.05;;;7.20;;
19195;SDS011;9730;48.926;11.376;2022-07-22T10:45:46;8.63;;;7.47;;
19195;SDS011;9730;48.926;11.376;2022-07-22T10:48:17;7.55;;;6.80;;
19195;SDS011;9730;48.926;11.376;2022-07-22T10:53:40;7.40;;;6.70;;
19195;SDS011;9730;48.926;11.376;2022-07-22T10:56:20;7.55;;;6.32;;
19195;SDS011;9730;48.926;11.376;2022-07-22T10:58:58;8.50;;;7.18;;
19195;SDS011;9730;48.926;11.376;2022-07-22T11:01:33;11.68;;;7.28;;
19195;SDS011;9730;48.926;11.376;2022-07-22T11:04:11;11.88;;;6.65;;
19195;SDS011;9730;48.926;11.376;2022-07-22T11:06:40;8.50;;;7.35;;
19195;SDS011;9730;48.926;11.376;2022-07-22T11:09:07;8.52;;;6.82;;
19195;SDS011;9730;48.926;11.376;2022-07-22T11:11:39;7.75;;;6.80;;
19195;SDS011;9730;48.926;11.376;2022-07-22T11:14:11;10.45;;;6.82;;
19195;SDS011;9730;48.926;11.376;2022-07-22T11:16:39;7.72;;;6.93;;
19195;SDS011;9730;48.926;11.376;2022-07-22T11:19:07;8.20;;;6.72;;
19195;SDS011;9730;48.926;11.376;2022-07-22T11:21:35;7.30;;;6.63;;
19195;SDS011;9730;48.926;11.376;2022-07-22T11:24:03;7.63;;;6.65;;
19195;SDS011;9730;48.926;11.376;2022-07-22T11:26:36;8.65;;;6.35;;
19195;SDS011;9730;48.926;11.376;2022-07-22T11:29:06;7.95;;;7.15;;
19195;SDS011;9730;48.926;11.376;2022-07-22T11:31:33;8.50;;;6.47;;
19195;SDS011;9730;48.926;11.376;2022-07-22T11:34:07;8.85;;;6.53;;
19195;SDS011;9730;48.926;11.376;2022-07-22T11:36:36;7.57;;;6.70;;
19195;SDS011;9730;48.926;11.376;2022-07-22T11:39:04;12.57;;;7.35;;
19195;SDS011;9730;48.926;11.376;2022-07-22T11:41:31;7.10;;;6.38;;
19195;SDS011;9730;48.926;11.376;2022-07-22T11:43:58;8.75;;;6.78;;
19195;SDS011;9730;48.926;11.376;2022-07-22T11:46:25;7.67;;;6.80;;
19195;SDS011;9730;48.926;11.376;2022-07-22T11:48:52;17.05;;;7.13;;
19195;SDS011;9730;48.926;11.376;2022-07-22T11:51:26;7.07;;;6.38;;
19195;SDS011;9730;48.926;11.376;2022-07-22T11:53:55;7.53;;;6.72;;
19195;SDS011;9730;48.926;11.376;2022-07-22T11:56:23;12.63;;;6.38;;
19195;SDS011;9730;48.926;11.376;2022-07-22T11:58:51;6.45;;;5.85;;
19195;SDS011;9730;48.926;11.376;2022-07-22T12:01:19;6.97;;;6.28;;
19195;SDS011;9730;48.926;11.376;2022-07-22T12:03:48;8.13;;;6.30;;
19195;SDS011;9730;48.926;11.376;2022-07-22T12:06:16;7.00;;;5.90;;
19195;SDS011;9730;48.926;11.376;2022-07-22T12:08:44;6.75;;;6.05;;
19195;SDS011;9730;48.926;11.376;2022-07-22T12:11:15;7.00;;;6.30;;
19195;SDS011;9730;48.926;11.376;2022-07-22T12:13:43;6.43;;;5.82;;
19195;SDS011;9730;48.926;11.376;2022-07-22T12:16:18;6.35;;;5.78;;
19195;SDS011;9730;48.926;11.376;2022-07-22T12:18:53;7.00;;;6.30;;
19195;SDS011;9730;48.926;11.376;2022-07-22T12:21:21;8.52;;;5.82;;
19195;SDS011;9730;48.926;11.376;2022-07-22T12:23:49;8.57;;;5.95;;
19195;SDS011;9730;48.926;11.376;2022-07-22T12:29:20;6.75;;;6.05;;
19195;SDS011;9730;48.926;11.376;2022-07-22T12:31:49;6.47;;;5.80;;
19195;SDS011;9730;48.926;11.376;2022-07-22T12:34:28;6.38;;;5.72;;
19195;SDS011;9730;48.926;11.376;2022-07-22T12:36:56;7.10;;;5.93;;
19195;SDS011;9730;48.926;11.376;2022-07-22T12:39:23;10.25;;;5.65;;
19195;SDS011;9730;48.926;11.376;2022-07-22T12:41:52;6.30;;;5.70;;
19195;SDS011;9730;48.926;11.376;2022-07-22T12:44:20;6.75;;;6.05;;
19195;SDS011;9730;48.926;11.376;2022-07-22T12:46:49;7.20;;;6.50;;
19195;SDS011;9730;48.926;11.376;2022-07-22T12:49:18;7.05;;;5.95;;
19195;SDS011;9730;48.926;11.376;2022-07-22T12:52:05;7.78;;;6.03;;
19195;SDS011;9730;48.926;11.376;2022-07-22T12:54:32;6.90;;;5.90;;
19195;SDS011;9730;48.926;11.376;2022-07-22T12:57:00;10.38;;;6.10;;
19195;SDS011;9730;48.926;11.376;2022-07-22T12:59:27;9.00;;;6.28;;
19195;SDS011;9730;48.926;11.376;2022-07-22T13:01:54;7.25;;;5.90;;
19195;SDS011;9730;48.926;11.376;2022-07-22T13:04:20;6.90;;;6.18;;
19195;SDS011;9730;48.926;11.376;2022-07-22T13:06:47;15.85;;;6.40;;
19195;SDS011;9730;48.926;11.376;2022-07-22T13:09:14;9.00;;;5.72;;
19195;SDS011;9730;48.926;11.376;2022-07-22T13:11:40;7.95;;;6.03;;
19195;SDS011;9730;48.926;11.376;2022-07-22T13:14:10;7.30;;;5.80;;
19195;SDS011;9730;48.926;11.376;2022-07-22T13:19:04;7.60;;;5.97;;
19195;SDS011;9730;48.926;11.376;2022-07-22T13:21:30;7.32;;;6.00;;
19195;SDS011;9730;48.926;11.376;2022-07-22T13:23:57;6.93;;;6.22;;
19195;SDS011;9730;48.926;11.376;2022-07-22T13:26:24;7.45;;;6.32;;
19195;SDS011;9730;48.926;11.376;2022-07-22T13:28:51;6.72;;;5.95;;
19195;SDS011;9730;48.926;11.376;2022-07-22T13:31:19;7.05;;;5.75;;
19195;SDS011;9730;48.926;11.376;2022-07-22T13:33:45;6.90;;;6.20;;
19195;SDS011;9730;48.926;11.376;2022-07-22T13:36:11;6.80;;;6.13;;
19195;SDS011;9730;48.926;11.376;2022-07-22T13:38:38;8.32;;;5.68;;
19195;SDS011;9730;48.926;11.376;2022-07-22T13:41:04;6.53;;;5.93;;
19195;SDS011;9730;48.926;11.376;2022-07-22T13:43:41;11.02;;;6.40;;
19195;SDS011;9730;48.926;11.376;2022-07-22T13:46:08;6.63;;;5.97;;
19195;SDS011;9730;48.926;11.376;2022-07-22T13:48:36;7.55;;;6.05;;
19195;SDS011;9730;48.926;11.376;2022-07-22T13:51:02;6.55;;;5.93;;
19195;SDS011;9730;48.926;11.376;2022-07-22T13:53:29;8.43;;;6.17;;
19195;SDS011;9730;48.926;11.376;2022-07-22T13:55:56;7.72;;;6.07;;
19195;SDS011;9730;48.926;11.376;2022-07-22T13:58:22;6.50;;;5.85;;
19195;SDS011;9730;48.926;11.376;2022-07-22T14:00:49;10.25;;;6.22;;
19195;SDS011;9730;48.926;11.376;2022-07-22T14:03:15;11.23;;;6.45;;
19195;SDS011;9730;48.926;11.376;2022-07-22T14:05:44;8.32;;;5.80;;
19195;SDS011;9730;48.926;11.376;2022-07-22T14:08:11;7.07;;;5.95;;
19195;SDS011;9730;48.926;11.376;2022-07-22T14:10:37;9.13;;;5.93;;
19195;SDS011;9730;48.926;11.376;2022-07-22T14:13:04;7.03;;;6.15;;
19195;SDS011;9730;48.926;11.376;2022-07-22T14:15:31;7.65;;;6.53;;
19195;SDS011;9730;48.926;11.376;2022-07-22T14:17:58;11.65;;;5.75;;
19195;SDS011;9730;48.926;11.376;2022-07-22T14:20:24;6.50;;;5.75;;
19195;SDS011;9730;48.926;11.376;2022-07-22T14:22:52;8.20;;;5.95;;
19195;SDS011;9730;48.926;11.376;2022-07-22T14:25:19;10.73;;;6.43;;
19195;SDS011;9730;48.926;11.376;2022-07-22T14:27:45;7.57;;;6.43;;
19195;SDS011;9730;48.926;11.376;2022-07-22T14:30:12;7.88;;;6.00;;
19195;SDS011;9730;48.926;11.376;2022-07-22T14:32:39;8.57;;;6.47;;
19195;SDS011;9730;48.926;11.376;2022-07-22T14:35:05;9.73;;;5.50;;
19195;SDS011;9730;48.926;11.376;2022-07-22T14:37:33;10.90;;;6.18;;
19195;SDS011;9730;48.926;11.376;2022-07-22T14:40:00;7.35;;;5.43;;
19195;SDS011;9730;48.926;11.376;2022-07-22T14:42:28;14.18;;;6.10;;
19195;SDS011;9730;48.926;11.376;2022-07-22T14:44:55;10.32;;;5.70;;
19195;SDS011;9730;48.926;11.376;2022-07-22T14:47:21;10.00;;;6.70;;
19195;SDS011;9730;48.926;11.376;2022-07-22T14:49:48;9.13;;;5.72;;
19195;SDS011;9730;48.926;11.376;2022-07-22T14:52:14;6.32;;;5.43;;
19195;SDS011;9730;48.926;11.376;2022-07-22T14:54:41;7.75;;;5.55;;
19195;SDS011;9730;48.926;11.376;2022-07-22T14:57:08;6.75;;;5.40;;
19195;SDS011;9730;48.926;11.376;2022-07-22T14:59:35;6.40;;;5.80;;
19195;SDS011;9730;48.926;11.376;2022-07-22T15:02:01;7.85;;;5.60;;
19195;SDS011;9730;48.926;11.376;2022-07-22T15:04:28;6.07;;;5.32;;